FAKN

Kruger Mpumalanga International Airport

Mpumalanga, South Africa
METAR FAKN 241200Z 08007KT 9999 SCT020 BKN070 28/18 Q1009 NOSIG
Observed Flight Rules
Feb-24 @ 12:00 UTC (23 minutes ago) Visual Flight Rules
Wind Visibility Clouds
80° at 7 knots 10,000+ meters
  • Scattered at 2,000' AGL
  • Broken at 7,000' AGL
Temperatures Readings
Current 28°C / 82°F
Dewpoint 18°C / 64°F
Humidity 55%
Altimeter 29.79" Hg
Pressure 1009 hPa
Elevation 862
METAR FAKN 241200Z 08007KT 9999 SCT020 BKN070 28/18 Q1009 NOSIG
Observed Flight Rules
Feb-24 @ 12:00 UTC
(23 minutes ago)
VFR
Wind Visibility
80° at 7 knots 10,000+ meters
Clouds
  • Scattered at 2,000' AGL
  • Broken at 7,000' AGL
Temperature Dewpoint
28°C / 82°F 18°C / 64°F
Humidity Altimeter Pressure
55% 29.79" Hg 1009 hPa